sensor_id;sensor_type;location;lat;lon;timestamp;pressure;altitude;pressure_sealevel;temperature;humidity
71559;BME280;59382;43.852;25.952;2023-05-09T00:00:13;101911.31;;;12.03;71.45
71559;BME280;59382;43.852;25.952;2023-05-09T00:02:39;101881.88;;;11.93;71.25
71559;BME280;59382;43.852;25.952;2023-05-09T00:05:05;101913.81;;;12.04;71.78
71559;BME280;59382;43.852;25.952;2023-05-09T00:07:32;101909.81;;;12.00;71.54
71559;BME280;59382;43.852;25.952;2023-05-09T00:09:59;101923.63;;;12.05;71.50
71559;BME280;59382;43.852;25.952;2023-05-09T00:12:28;101903.69;;;11.92;71.31
71559;BME280;59382;43.852;25.952;2023-05-09T00:14:53;101902.00;;;11.90;71.65
71559;BME280;59382;43.852;25.952;2023-05-09T00:17:24;101914.97;;;11.95;71.66
71559;BME280;59382;43.852;25.952;2023-05-09T00:19:50;101925.16;;;11.93;71.56
71559;BME280;59382;43.852;25.952;2023-05-09T00:22:18;101942.00;;;11.95;71.64
71559;BME280;59382;43.852;25.952;2023-05-09T00:24:48;101914.81;;;11.82;71.44
71559;BME280;59382;43.852;25.952;2023-05-09T00:27:15;101886.34;;;11.65;71.63
71559;BME280;59382;43.852;25.952;2023-05-09T00:29:41;101921.50;;;11.86;71.40
71559;BME280;59382;43.852;25.952;2023-05-09T00:32:07;101930.19;;;11.96;71.68
71559;BME280;59382;43.852;25.952;2023-05-09T00:34:32;101913.00;;;11.89;71.45
71559;BME280;59382;43.852;25.952;2023-05-09T00:36:58;101911.53;;;11.86;71.25
71559;BME280;59382;43.852;25.952;2023-05-09T00:39:23;101923.72;;;11.97;71.48
71559;BME280;59382;43.852;25.952;2023-05-09T00:41:50;101910.50;;;11.87;71.33
71559;BME280;59382;43.852;25.952;2023-05-09T00:44:15;101935.78;;;11.95;70.93
71559;BME280;59382;43.852;25.952;2023-05-09T00:46:41;101908.50;;;11.75;71.62
71559;BME280;59382;43.852;25.952;2023-05-09T00:49:07;101929.63;;;11.86;71.28
71559;BME280;59382;43.852;25.952;2023-05-09T00:51:35;101918.19;;;11.84;71.21
71559;BME280;59382;43.852;25.952;2023-05-09T00:54:01;101892.94;;;11.62;71.32
71559;BME280;59382;43.852;25.952;2023-05-09T00:56:26;101918.94;;;11.78;70.98
71559;BME280;59382;43.852;25.952;2023-05-09T00:58:52;101933.19;;;11.86;71.26
71559;BME280;59382;43.852;25.952;2023-05-09T01:01:19;101916.34;;;11.70;70.97
71559;BME280;59382;43.852;25.952;2023-05-09T01:03:45;101931.03;;;11.82;71.16
71559;BME280;59382;43.852;25.952;2023-05-09T01:11:28;101938.41;;;11.88;70.65
71559;BME280;59382;43.852;25.952;2023-05-09T01:16:40;101922.59;;;11.70;70.73
71559;BME280;59382;43.852;25.952;2023-05-09T01:22:14;101932.66;;;11.76;70.91
71559;BME280;59382;43.852;25.952;2023-05-09T01:30:02;101921.38;;;11.73;70.62
71559;BME280;59382;43.852;25.952;2023-05-09T01:32:31;101954.72;;;11.80;70.44
71559;BME280;59382;43.852;25.952;2023-05-09T01:35:01;101949.31;;;11.80;70.95
71559;BME280;59382;43.852;25.952;2023-05-09T01:37:31;101942.16;;;11.72;70.68
71559;BME280;59382;43.852;25.952;2023-05-09T01:40:06;101928.19;;;11.69;70.40
71559;BME280;59382;43.852;25.952;2023-05-09T01:43:03;101950.16;;;11.80;70.44
71559;BME280;59382;43.852;25.952;2023-05-09T01:45:50;101957.63;;;11.78;70.23
71559;BME280;59382;43.852;25.952;2023-05-09T01:48:16;101939.25;;;11.74;70.37
71559;BME280;59382;43.852;25.952;2023-05-09T01:50:43;101924.19;;;11.65;70.45
71559;BME280;59382;43.852;25.952;2023-05-09T01:53:29;101940.94;;;11.75;70.62
71559;BME280;59382;43.852;25.952;2023-05-09T01:55:56;101940.94;;;11.75;70.35
71559;BME280;59382;43.852;25.952;2023-05-09T01:58:22;101928.81;;;11.71;70.47
71559;BME280;59382;43.852;25.952;2023-05-09T02:00:49;101947.19;;;11.75;70.49
71559;BME280;59382;43.852;25.952;2023-05-09T02:03:15;101917.28;;;11.62;70.13
71559;BME280;59382;43.852;25.952;2023-05-09T02:05:41;101955.47;;;11.74;69.99
71559;BME280;59382;43.852;25.952;2023-05-09T02:08:08;101945.03;;;11.71;70.28
71559;BME280;59382;43.852;25.952;2023-05-09T02:10:34;101940.22;;;11.66;70.16
71559;BME280;59382;43.852;25.952;2023-05-09T02:13:01;101917.19;;;11.56;70.51
71559;BME280;59382;43.852;25.952;2023-05-09T02:15:28;101943.94;;;11.65;70.14
71559;BME280;59382;43.852;25.952;2023-05-09T02:17:54;101941.72;;;11.69;69.97
71559;BME280;59382;43.852;25.952;2023-05-09T02:20:19;101947.13;;;11.69;70.15
71559;BME280;59382;43.852;25.952;2023-05-09T02:22:45;101945.41;;;11.68;70.02
71559;BME280;59382;43.852;25.952;2023-05-09T02:25:11;101901.91;;;11.48;69.79
71559;BME280;59382;43.852;25.952;2023-05-09T02:27:43;101935.44;;;11.68;69.89
71559;BME280;59382;43.852;25.952;2023-05-09T02:30:13;101940.00;;;11.68;70.01
71559;BME280;59382;43.852;25.952;2023-05-09T02:32:42;101919.50;;;11.59;69.66
71559;BME280;59382;43.852;25.952;2023-05-09T02:35:10;101919.88;;;11.56;69.46
71559;BME280;59382;43.852;25.952;2023-05-09T02:37:37;101941.50;;;11.56;69.58
71559;BME280;59382;43.852;25.952;2023-05-09T02:40:05;101919.22;;;11.54;69.63
71559;BME280;59382;43.852;25.952;2023-05-09T02:42:34;101936.56;;;11.59;69.48
71559;BME280;59382;43.852;25.952;2023-05-09T02:44:59;101954.13;;;11.63;69.14
71559;BME280;59382;43.852;25.952;2023-05-09T02:47:25;101930.69;;;11.56;69.41
71559;BME280;59382;43.852;25.952;2023-05-09T02:49:50;101949.44;;;11.57;69.11
71559;BME280;59382;43.852;25.952;2023-05-09T02:52:16;101940.56;;;11.49;69.05
71559;BME280;59382;43.852;25.952;2023-05-09T02:54:41;101935.16;;;11.49;69.16
71559;BME280;59382;43.852;25.952;2023-05-09T02:57:07;101935.91;;;11.43;69.57
71559;BME280;59382;43.852;25.952;2023-05-09T02:59:32;101950.25;;;11.58;69.30
71559;BME280;59382;43.852;25.952;2023-05-09T03:01:58;101959.78;;;11.54;69.35
71559;BME280;59382;43.852;25.952;2023-05-09T03:04:23;101954.00;;;11.57;69.13
71559;BME280;59382;43.852;25.952;2023-05-09T03:06:50;101960.69;;;11.61;69.00
71559;BME280;59382;43.852;25.952;2023-05-09T03:09:16;101947.66;;;11.50;68.99
71559;BME280;59382;43.852;25.952;2023-05-09T03:11:41;101961.06;;;11.58;69.34
71559;BME280;59382;43.852;25.952;2023-05-09T03:14:07;101938.06;;;11.47;69.13
71559;BME280;59382;43.852;25.952;2023-05-09T03:16:33;101951.00;;;11.52;69.15
71559;BME280;59382;43.852;25.952;2023-05-09T03:18:59;101959.78;;;11.54;68.73
71559;BME280;59382;43.852;25.952;2023-05-09T03:21:24;101939.72;;;11.34;69.00
71559;BME280;59382;43.852;25.952;2023-05-09T03:23:50;101969.28;;;11.50;69.15
71559;BME280;59382;43.852;25.952;2023-05-09T03:26:15;101957.53;;;11.43;69.28
71559;BME280;59382;43.852;25.952;2023-05-09T03:28:41;101986.81;;;11.54;68.93
71559;BME280;59382;43.852;25.952;2023-05-09T03:31:06;101991.84;;;11.57;69.17
71559;BME280;59382;43.852;25.952;2023-05-09T03:33:32;101989.31;;;11.55;68.80
71559;BME280;59382;43.852;25.952;2023-05-09T03:35:57;102006.59;;;11.54;68.66
71559;BME280;59382;43.852;25.952;2023-05-09T03:38:23;101985.50;;;11.50;68.69
71559;BME280;59382;43.852;25.952;2023-05-09T03:40:49;102005.44;;;11.49;68.87
71559;BME280;59382;43.852;25.952;2023-05-09T03:43:15;101998.75;;;11.45;68.64
71559;BME280;59382;43.852;25.952;2023-05-09T03:45:41;101989.16;;;11.42;68.75
71559;BME280;59382;43.852;25.952;2023-05-09T03:48:07;102013.19;;;11.52;68.24
71559;BME280;59382;43.852;25.952;2023-05-09T03:50:34;102019.25;;;11.54;68.22
71559;BME280;59382;43.852;25.952;2023-05-09T03:53:00;102004.81;;;11.47;68.62
71559;BME280;59382;43.852;25.952;2023-05-09T03:55:26;102002.91;;;11.47;68.30
71559;BME280;59382;43.852;25.952;2023-05-09T03:57:52;102028.66;;;11.58;67.87
71559;BME280;59382;43.852;25.952;2023-05-09T04:00:18;102007.88;;;11.44;68.12
71559;BME280;59382;43.852;25.952;2023-05-09T04:02:44;102038.84;;;11.56;68.38
71559;BME280;59382;43.852;25.952;2023-05-09T04:05:10;102030.06;;;11.54;68.24
71559;BME280;59382;43.852;25.952;2023-05-09T04:07:36;102030.44;;;11.51;68.05
71559;BME280;59382;43.852;25.952;2023-05-09T04:10:01;102029.75;;;11.49;68.24
71559;BME280;59382;43.852;25.952;2023-05-09T04:12:27;102017.47;;;11.46;68.45
71559;BME280;59382;43.852;25.952;2023-05-09T04:14:52;102049.28;;;11.59;67.85
71559;BME280;59382;43.852;25.952;2023-05-09T04:17:18;102022.69;;;11.48;67.92
71559;BME280;59382;43.852;25.952;2023-05-09T04:19:43;102033.81;;;11.53;67.72
71559;BME280;59382;43.852;25.952;2023-05-09T04:22:09;102048.94;;;11.62;67.90
71559;BME280;59382;43.852;25.952;2023-05-09T04:24:35;102041.81;;;11.61;67.70
71559;BME280;59382;43.852;25.952;2023-05-09T04:27:01;102039.56;;;11.50;67.69
71559;BME280;59382;43.852;25.952;2023-05-09T04:29:26;102033.81;;;11.53;67.69
71559;BME280;59382;43.852;25.952;2023-05-09T04:31:52;102037.97;;;11.55;67.84
71559;BME280;59382;43.852;25.952;2023-05-09T04:34:18;102021.22;;;11.45;67.98
71559;BME280;59382;43.852;25.952;2023-05-09T04:36:45;102047.31;;;11.53;67.54
71559;BME280;59382;43.852;25.952;2023-05-09T04:39:10;102042.50;;;11.63;67.48
71559;BME280;59382;43.852;25.952;2023-05-09T04:41:37;102048.06;;;11.61;67.48
71559;BME280;59382;43.852;25.952;2023-05-09T04:44:02;102047.22;;;11.61;67.49
71559;BME280;59382;43.852;25.952;2023-05-09T04:46:28;102046.50;;;11.67;67.21
71559;BME280;59382;43.852;25.952;2023-05-09T04:48:53;102058.97;;;11.68;67.29
71559;BME280;59382;43.852;25.952;2023-05-09T04:51:19;102036.75;;;11.58;67.66
71559;BME280;59382;43.852;25.952;2023-05-09T04:53:45;102054.59;;;11.67;67.18
71559;BME280;59382;43.852;25.952;2023-05-09T04:56:10;102063.56;;;11.67;67.27
71559;BME280;59382;43.852;25.952;2023-05-09T04:58:36;102053.19;;;11.71;67.01
71559;BME280;59382;43.852;25.952;2023-05-09T05:01:05;102047.78;;;11.71;67.02
71559;BME280;59382;43.852;25.952;2023-05-09T05:03:30;102046.50;;;11.67;67.09
71559;BME280;59382;43.852;25.952;2023-05-09T05:05:56;102043.06;;;11.73;66.84
71559;BME280;59382;43.852;25.952;2023-05-09T05:08:21;102045.38;;;11.76;66.94
71559;BME280;59382;43.852;25.952;2023-05-09T05:10:47;102042.69;;;11.76;66.64
71559;BME280;59382;43.852;25.952;2023-05-09T05:13:14;102057.78;;;11.85;66.70
71559;BME280;59382;43.852;25.952;2023-05-09T05:15:40;102062.53;;;11.83;66.72
71559;BME280;59382;43.852;25.952;2023-05-09T05:18:06;102052.94;;;11.80;66.53
71559;BME280;59382;43.852;25.952;2023-05-09T05:20:32;102051.44;;;11.78;66.58
71559;BME280;59382;43.852;25.952;2023-05-09T05:22:58;102061.78;;;11.89;66.57
71559;BME280;59382;43.852;25.952;2023-05-09T05:25:24;102056.00;;;11.92;66.67
71559;BME280;59382;43.852;25.952;2023-05-09T05:27:50;102034.66;;;11.82;66.88
71559;BME280;59382;43.852;25.952;2023-05-09T05:30:16;102055.25;;;11.98;66.28
71559;BME280;59382;43.852;25.952;2023-05-09T05:32:41;102048.63;;;12.01;66.10
71559;BME280;59382;43.852;25.952;2023-05-09T05:35:08;102044.53;;;11.90;66.11
71559;BME280;59382;43.852;25.952;2023-05-09T05:37:39;102059.91;;;12.04;66.39
71559;BME280;59382;43.852;25.952;2023-05-09T05:40:06;102061.22;;;12.08;66.06
71559;BME280;59382;43.852;25.952;2023-05-09T05:42:32;102058.16;;;12.11;65.87
71559;BME280;59382;43.852;25.952;2023-05-09T05:44:58;102061.47;;;12.13;65.84
71559;BME280;59382;43.852;25.952;2023-05-09T05:47:33;102063.06;;;12.22;66.11
71559;BME280;59382;43.852;25.952;2023-05-09T05:50:00;102063.91;;;12.23;65.48
71559;BME280;59382;43.852;25.952;2023-05-09T05:52:26;102062.38;;;12.20;65.61
71559;BME280;59382;43.852;25.952;2023-05-09T05:54:52;102052.75;;;12.11;65.46
71559;BME280;59382;43.852;25.952;2023-05-09T05:57:18;102065.09;;;12.20;66.12
71559;BME280;59382;43.852;25.952;2023-05-09T05:59:45;102062.88;;;12.24;65.31
71559;BME280;59382;43.852;25.952;2023-05-09T06:02:12;102081.63;;;12.25;65.04
71559;BME280;59382;43.852;25.952;2023-05-09T06:04:37;102073.03;;;12.22;65.22
71559;BME280;59382;43.852;25.952;2023-05-09T06:07:03;102060.44;;;12.14;64.85
71559;BME280;59382;43.852;25.952;2023-05-09T06:09:28;102060.84;;;12.11;65.62
71559;BME280;59382;43.852;25.952;2023-05-09T06:11:54;102049.56;;;12.08;65.56
71559;BME280;59382;43.852;25.952;2023-05-09T06:14:19;102052.06;;;12.09;65.33
71559;BME280;59382;43.852;25.952;2023-05-09T06:16:45;102062.53;;;12.12;65.52
71559;BME280;59382;43.852;25.952;2023-05-09T06:19:11;102064.00;;;12.15;65.66
71559;BME280;59382;43.852;25.952;2023-05-09T06:21:36;102036.97;;;12.00;65.38
71559;BME280;59382;43.852;25.952;2023-05-09T06:24:02;102044.22;;;12.14;65.55
71559;BME280;59382;43.852;25.952;2023-05-09T06:26:28;102044.63;;;12.11;65.18
71559;BME280;59382;43.852;25.952;2023-05-09T06:28:54;102033.38;;;12.14;65.33
71559;BME280;59382;43.852;25.952;2023-05-09T06:31:20;102067.34;;;12.31;64.86
71559;BME280;59382;43.852;25.952;2023-05-09T06:33:45;102076.09;;;12.33;64.83
71559;BME280;59382;43.852;25.952;2023-05-09T06:36:11;102052.22;;;12.22;64.76
71559;BME280;59382;43.852;25.952;2023-05-09T06:38:37;102064.81;;;12.30;65.16
71559;BME280;59382;43.852;25.952;2023-05-09T06:41:02;102072.75;;;12.31;65.32
71559;BME280;59382;43.852;25.952;2023-05-09T06:43:28;102076.03;;;12.27;65.27
71559;BME280;59382;43.852;25.952;2023-05-09T06:45:53;102064.28;;;12.20;65.55
71559;BME280;59382;43.852;25.952;2023-05-09T06:48:19;102077.78;;;12.34;65.21
71559;BME280;59382;43.852;25.952;2023-05-09T06:50:44;102060.63;;;12.27;65.04
71559;BME280;59382;43.852;25.952;2023-05-09T06:53:10;102067.84;;;12.41;65.51
71559;BME280;59382;43.852;25.952;2023-05-09T06:55:35;102079.25;;;12.51;65.38
71559;BME280;59382;43.852;25.952;2023-05-09T06:58:02;102072.22;;;12.57;64.74
71559;BME280;59382;43.852;25.952;2023-05-09T07:00:28;102051.78;;;12.54;64.63
71559;BME280;59382;43.852;25.952;2023-05-09T07:02:53;102069.19;;;12.66;64.70
71559;BME280;59382;43.852;25.952;2023-05-09T07:05:19;102066.09;;;12.69;64.89
71559;BME280;59382;43.852;25.952;2023-05-09T07:07:44;102064.94;;;12.78;64.62
71559;BME280;59382;43.852;25.952;2023-05-09T07:10:10;102052.81;;;12.74;64.74
71559;BME280;59382;43.852;25.952;2023-05-09T07:12:36;102066.47;;;12.87;64.64
71559;BME280;59382;43.852;25.952;2023-05-09T07:15:01;102061.34;;;12.92;64.18
71559;BME280;59382;43.852;25.952;2023-05-09T07:17:27;102069.25;;;12.94;64.23
71559;BME280;59382;43.852;25.952;2023-05-09T07:19:54;102051.66;;;12.83;64.28
71559;BME280;59382;43.852;25.952;2023-05-09T07:22:20;102050.38;;;12.79;64.30
71559;BME280;59382;43.852;25.952;2023-05-09T07:24:46;102064.22;;;12.91;64.50
71559;BME280;59382;43.852;25.952;2023-05-09T07:27:11;102061.78;;;12.96;64.58
71559;BME280;59382;43.852;25.952;2023-05-09T07:29:37;102068.53;;;13.00;64.31
71559;BME280;59382;43.852;25.952;2023-05-09T07:32:02;102070.19;;;13.01;64.45
71559;BME280;59382;43.852;25.952;2023-05-09T07:34:28;102075.81;;;12.99;64.40
71559;BME280;59382;43.852;25.952;2023-05-09T07:36:53;102081.22;;;12.99;64.18
71559;BME280;59382;43.852;25.952;2023-05-09T07:39:19;102076.81;;;12.98;64.33
71559;BME280;59382;43.852;25.952;2023-05-09T07:41:45;102072.44;;;12.97;63.94
71559;BME280;59382;43.852;25.952;2023-05-09T07:44:11;102070.13;;;12.94;64.42
71559;BME280;59382;43.852;25.952;2023-05-09T07:46:37;102057.97;;;12.90;64.32
71559;BME280;59382;43.852;25.952;2023-05-09T07:49:04;102079.16;;;13.01;64.20
71559;BME280;59382;43.852;25.952;2023-05-09T07:51:30;102075.16;;;12.97;64.04
71559;BME280;59382;43.852;25.952;2023-05-09T07:53:56;102068.31;;;13.01;64.09
71559;BME280;59382;43.852;25.952;2023-05-09T07:56:22;102057.56;;;12.93;63.99
71559;BME280;59382;43.852;25.952;2023-05-09T07:58:47;102066.91;;;13.05;64.09
71559;BME280;59382;43.852;25.952;2023-05-09T08:01:13;102054.78;;;13.01;63.91
71559;BME280;59382;43.852;25.952;2023-05-09T08:03:39;102061.75;;;13.10;63.68
71559;BME280;59382;43.852;25.952;2023-05-09T08:06:04;102056.91;;;13.06;64.00
71559;BME280;59382;43.852;25.952;2023-05-09T08:08:30;102051.28;;;13.07;63.63
71559;BME280;59382;43.852;25.952;2023-05-09T08:10:56;102056.31;;;13.10;63.58
71559;BME280;59382;43.852;25.952;2023-05-09T08:13:22;102063.22;;;13.13;63.59
71559;BME280;59382;43.852;25.952;2023-05-09T08:15:48;102057.41;;;13.16;63.52
71559;BME280;59382;43.852;25.952;2023-05-09T08:18:13;102059.13;;;13.23;63.53
71559;BME280;59382;43.852;25.952;2023-05-09T08:20:39;102067.56;;;13.35;63.14
71559;BME280;59382;43.852;25.952;2023-05-09T08:23:05;102061.34;;;13.41;63.12
71559;BME280;59382;43.852;25.952;2023-05-09T08:25:31;102056.38;;;13.44;63.31
71559;BME280;59382;43.852;25.952;2023-05-09T08:27:57;102049.72;;;13.47;62.65
71559;BME280;59382;43.852;25.952;2023-05-09T08:30:22;102056.06;;;13.60;62.96
71559;BME280;59382;43.852;25.952;2023-05-09T08:32:48;102050.03;;;13.65;62.76
71559;BME280;59382;43.852;25.952;2023-05-09T08:35:13;102047.00;;;13.74;62.48
71559;BME280;59382;43.852;25.952;2023-05-09T08:37:39;102065.41;;;13.85;62.32
71559;BME280;59382;43.852;25.952;2023-05-09T08:40:05;102056.25;;;13.87;62.09
71559;BME280;59382;43.852;25.952;2023-05-09T08:42:36;102047.84;;;13.81;62.06
71559;BME280;59382;43.852;25.952;2023-05-09T08:45:09;102038.50;;;13.91;62.13
71559;BME280;59382;43.852;25.952;2023-05-09T08:47:38;102036.31;;;14.07;61.85
71559;BME280;59382;43.852;25.952;2023-05-09T08:50:05;102038.22;;;14.13;61.62
71559;BME280;59382;43.852;25.952;2023-05-09T08:52:32;102040.94;;;14.20;61.76
71559;BME280;59382;43.852;25.952;2023-05-09T08:55:01;102046.44;;;14.26;61.48
71559;BME280;59382;43.852;25.952;2023-05-09T08:57:31;102028.91;;;14.35;61.16
71559;BME280;59382;43.852;25.952;2023-05-09T08:59:58;102032.72;;;14.47;61.21
71559;BME280;59382;43.852;25.952;2023-05-09T09:02:24;102019.09;;;14.41;60.94
71559;BME280;59382;43.852;25.952;2023-05-09T09:04:49;102022.25;;;14.51;60.47
71559;BME280;59382;43.852;25.952;2023-05-09T09:07:16;102015.59;;;14.53;60.50
71559;BME280;59382;43.852;25.952;2023-05-09T09:09:46;102014.78;;;14.59;60.34
71559;BME280;59382;43.852;25.952;2023-05-09T09:12:14;102019.81;;;14.75;59.47
71559;BME280;59382;43.852;25.952;2023-05-09T09:14:43;102024.84;;;14.85;59.40
71559;BME280;59382;43.852;25.952;2023-05-09T09:17:14;102004.97;;;14.78;58.86
71559;BME280;59382;43.852;25.952;2023-05-09T09:19:43;102035.31;;;15.01;59.09
71559;BME280;59382;43.852;25.952;2023-05-09T09:22:12;102027.78;;;14.96;58.71
71559;BME280;59382;43.852;25.952;2023-05-09T09:24:38;102024.00;;;15.04;58.61
71559;BME280;59382;43.852;25.952;2023-05-09T09:27:04;102031.13;;;15.05;58.54
71559;BME280;59382;43.852;25.952;2023-05-09T09:29:31;102010.84;;;15.01;58.65
71559;BME280;59382;43.852;25.952;2023-05-09T09:32:01;102046.16;;;15.27;58.30
71559;BME280;59382;43.852;25.952;2023-05-09T09:34:27;102043.69;;;15.38;58.10
71559;BME280;59382;43.852;25.952;2023-05-09T09:36:53;102039.47;;;15.62;57.84
71559;BME280;59382;43.852;25.952;2023-05-09T09:39:19;102028.56;;;15.75;57.37
71559;BME280;59382;43.852;25.952;2023-05-09T09:41:46;102012.81;;;15.90;56.98
71559;BME280;59382;43.852;25.952;2023-05-09T09:46:49;102019.38;;;16.20;56.02
71559;BME280;59382;43.852;25.952;2023-05-09T09:49:20;102010.72;;;16.36;55.77
71559;BME280;59382;43.852;25.952;2023-05-09T09:51:50;102021.75;;;16.54;55.52
71559;BME280;59382;43.852;25.952;2023-05-09T09:54:16;102022.09;;;16.64;54.54
71559;BME280;59382;43.852;25.952;2023-05-09T09:56:47;102012.25;;;16.63;54.30
71559;BME280;59382;43.852;25.952;2023-05-09T09:59:15;102019.38;;;16.64;54.31
71559;BME280;59382;43.852;25.952;2023-05-09T10:04:19;102009.66;;;16.37;54.76
71559;BME280;59382;43.852;25.952;2023-05-09T10:07:02;102020.84;;;16.23;54.76
71559;BME280;59382;43.852;25.952;2023-05-09T10:09:29;102022.97;;;16.14;54.87
71559;BME280;59382;43.852;25.952;2023-05-09T10:11:56;101996.41;;;16.03;54.83
71559;BME280;59382;43.852;25.952;2023-05-09T10:14:25;101995.53;;;16.09;54.65
71559;BME280;59382;43.852;25.952;2023-05-09T10:16:55;101997.41;;;16.15;54.51
71559;BME280;59382;43.852;25.952;2023-05-09T10:19:22;102004.94;;;16.13;54.67
71559;BME280;59382;43.852;25.952;2023-05-09T10:24:25;102013.53;;;16.10;55.03
71559;BME280;59382;43.852;25.952;2023-05-09T10:26:58;102002.28;;;16.07;55.17
71559;BME280;59382;43.852;25.952;2023-05-09T10:29:26;101991.41;;;16.00;54.96
71559;BME280;59382;43.852;25.952;2023-05-09T10:31:58;102001.63;;;16.05;54.85
71559;BME280;59382;43.852;25.952;2023-05-09T10:34:25;102012.94;;;16.08;54.66
71559;BME280;59382;43.852;25.952;2023-05-09T10:36:53;102011.69;;;16.04;54.68
71559;BME280;59382;43.852;25.952;2023-05-09T10:39:19;102008.38;;;16.02;54.76
71559;BME280;59382;43.852;25.952;2023-05-09T10:41:45;102008.38;;;16.02;54.53
71559;BME280;59382;43.852;25.952;2023-05-09T10:44:14;102014.19;;;16.06;53.69
71559;BME280;59382;43.852;25.952;2023-05-09T10:46:39;102013.16;;;16.07;53.62
71559;BME280;59382;43.852;25.952;2023-05-09T10:49:05;102010.81;;;16.10;53.62
71559;BME280;59382;43.852;25.952;2023-05-09T10:51:31;102012.09;;;16.14;53.48
71559;BME280;59382;43.852;25.952;2023-05-09T10:53:57;101995.53;;;16.16;53.39
71559;BME280;59382;43.852;25.952;2023-05-09T10:56:33;101992.41;;;16.12;53.53
71559;BME280;59382;43.852;25.952;2023-05-09T10:59:04;102000.72;;;16.24;53.70
71559;BME280;59382;43.852;25.952;2023-05-09T11:01:37;101996.94;;;16.25;53.54
71559;BME280;59382;43.852;25.952;2023-05-09T11:04:10;102005.28;;;16.30;53.31
71559;BME280;59382;43.852;25.952;2023-05-09T11:06:44;102001.53;;;16.31;53.25
71559;BME280;59382;43.852;25.952;2023-05-09T11:11:52;101990.66;;;16.24;53.39
71559;BME280;59382;43.852;25.952;2023-05-09T11:14:48;102016.75;;;16.38;53.38
71559;BME280;59382;43.852;25.952;2023-05-09T11:17:27;102010.28;;;16.39;53.13
71559;BME280;59382;43.852;25.952;2023-05-09T11:20:02;101989.94;;;16.35;52.98
71559;BME280;59382;43.852;25.952;2023-05-09T11:22:36;101996.41;;;16.47;53.16
71559;BME280;59382;43.852;25.952;2023-05-09T11:25:04;102004.16;;;16.50;53.26
71559;BME280;59382;43.852;25.952;2023-05-09T11:27:43;101988.00;;;16.49;53.26
71559;BME280;59382;43.852;25.952;2023-05-09T11:30:19;101995.50;;;16.60;53.00
71559;BME280;59382;43.852;25.952;2023-05-09T11:32:53;101981.88;;;16.60;52.93
71559;BME280;59382;43.852;25.952;2023-05-09T11:35:27;101981.00;;;16.66;52.78
71559;BME280;59382;43.852;25.952;2023-05-09T11:38:01;101961.94;;;16.59;52.90
71559;BME280;59382;43.852;25.952;2023-05-09T11:40:28;101988.25;;;16.78;52.46
71559;BME280;59382;43.852;25.952;2023-05-09T11:42:56;101997.03;;;16.80;52.76
71559;BME280;59382;43.852;25.952;2023-05-09T11:45:23;101973.66;;;16.66;52.43
71559;BME280;59382;43.852;25.952;2023-05-09T11:47:50;101987.00;;;16.74;52.50
71559;BME280;59382;43.852;25.952;2023-05-09T11:50:17;101984.91;;;16.76;52.24
71559;BME280;59382;43.852;25.952;2023-05-09T11:52:45;101968.81;;;16.68;52.30
71559;BME280;59382;43.852;25.952;2023-05-09T11:55:19;101977.16;;;16.73;52.29
71559;BME280;59382;43.852;25.952;2023-05-09T11:57:48;101978.38;;;16.77;52.22
71559;BME280;59382;43.852;25.952;2023-05-09T12:00:15;101982.81;;;16.78;52.34
71559;BME280;59382;43.852;25.952;2023-05-09T12:02:42;101978.38;;;16.77;52.40
71559;BME280;59382;43.852;25.952;2023-05-09T12:05:10;101983.63;;;16.79;51.59
71559;BME280;59382;43.852;25.952;2023-05-09T12:07:36;101970.19;;;16.77;51.35
71559;BME280;59382;43.852;25.952;2023-05-09T12:10:14;101952.84;;;16.72;51.52
71559;BME280;59382;43.852;25.952;2023-05-09T12:12:42;101984.16;;;16.87;51.20
71559;BME280;59382;43.852;25.952;2023-05-09T12:15:09;101960.06;;;16.84;50.99
71559;BME280;59382;43.852;25.952;2023-05-09T12:17:35;101958.41;;;16.83;50.92
71559;BME280;59382;43.852;25.952;2023-05-09T12:20:01;101951.31;;;16.82;51.45
71559;BME280;59382;43.852;25.952;2023-05-09T12:22:29;101952.06;;;16.89;51.17
71559;BME280;59382;43.852;25.952;2023-05-09T12:24:55;101952.41;;;16.99;51.01
71559;BME280;59382;43.852;25.952;2023-05-09T12:27:22;101948.19;;;17.03;50.69
71559;BME280;59382;43.852;25.952;2023-05-09T12:29:47;101925.56;;;16.96;50.91
71559;BME280;59382;43.852;25.952;2023-05-09T12:32:14;101941.66;;;17.04;51.03
71559;BME280;59382;43.852;25.952;2023-05-09T12:34:43;101944.22;;;16.99;51.17
71559;BME280;59382;43.852;25.952;2023-05-09T12:37:17;101934.44;;;16.92;51.15
71559;BME280;59382;43.852;25.952;2023-05-09T12:40:10;101928.97;;;16.92;51.33
71559;BME280;59382;43.852;25.952;2023-05-09T12:42:43;101925.44;;;16.91;51.56
71559;BME280;59382;43.852;25.952;2023-05-09T12:45:09;101914.97;;;16.88;51.57
71559;BME280;59382;43.852;25.952;2023-05-09T12:47:36;101922.31;;;16.88;51.72
71559;BME280;59382;43.852;25.952;2023-05-09T12:50:04;101923.59;;;16.85;51.75
71559;BME280;59382;43.852;25.952;2023-05-09T12:52:36;101933.72;;;16.78;51.46
71559;BME280;59382;43.852;25.952;2023-05-09T12:55:10;101928.09;;;16.73;51.82
71559;BME280;59382;43.852;25.952;2023-05-09T12:57:37;101915.81;;;16.64;52.16
71559;BME280;59382;43.852;25.952;2023-05-09T13:00:08;101933.38;;;16.68;52.13
71559;BME280;59382;43.852;25.952;2023-05-09T13:02:35;101910.81;;;16.61;52.41
71559;BME280;59382;43.852;25.952;2023-05-09T13:05:20;101903.91;;;16.59;52.30
71559;BME280;59382;43.852;25.952;2023-05-09T13:07:50;101928.28;;;16.78;52.04